Time;durP1;ratioP1;P1;durP2;ratioP2;P2;SDS_P1;SDS_P2;PMS_P1;PMS_P2;Temp;Humidity;BMP_temperature;BMP_pressure;BME280_temperature;BME280_humidity;BME280_pressure;Samples;Min_cycle;Max_cycle;Signal;HPM_P1;HPM_P2
2021/07/07 06:32:07;;;;;;;5.65;2.30;;;;;;;24.79;57.87;99944.50;5007608;28;105785;-63
2021/07/07 06:34:33;;;;;;;4.22;2.67;;;;;;;25.03;57.78;99943.13;5006459;28;105807;-61
2021/07/07 06:36:59;;;;;;;5.00;2.25;;;;;;;25.28;57.18;99948.56;5006023;28;105754;-75
2021/07/07 06:39:25;;;;;;;6.82;2.15;;;;;;;25.53;56.57;99946.13;5005253;28;106003;-63
2021/07/07 06:41:50;;;;;;;4.43;1.90;;;;;;;25.72;55.92;99943.63;5005438;28;106315;-61
2021/07/07 06:44:16;;;;;;;5.10;1.95;;;;;;;25.83;55.35;99942.50;5005892;28;106045;-61
2021/07/07 06:46:41;;;;;;;3.92;1.70;;;;;;;25.93;54.73;99938.91;5005622;28;105844;-61
2021/07/07 06:49:07;;;;;;;5.40;1.70;;;;;;;26.01;53.62;99938.31;5005313;28;105979;-63
2021/07/07 06:51:32;;;;;;;4.55;1.70;;;;;;;26.12;53.65;99936.41;5005496;28;105893;-62
2021/07/07 06:53:57;;;;;;;4.63;1.70;;;;;;;26.29;52.77;99945.06;5005862;28;105852;-63
2021/07/07 06:56:23;;;;;;;7.80;1.90;;;;;;;26.38;52.22;99949.91;5005609;28;106454;-64
2021/07/07 06:58:48;;;;;;;3.25;1.63;;;;;;;26.54;51.97;99951.47;5004927;28;106717;-62
2021/07/07 07:01:13;;;;;;;2.47;1.38;;;;;;;26.74;51.14;99963.41;5005125;28;106366;-64
2021/07/07 07:03:39;;;;;;;3.15;1.88;;;;;;;26.80;50.60;99962.25;5005625;28;106265;-61
2021/07/07 07:06:04;;;;;;;4.95;1.60;;;;;;;26.92;50.30;99957.25;5005486;28;106234;-63
2021/07/07 07:08:30;;;;;;;6.22;1.80;;;;;;;27.08;49.43;99965.31;5005081;28;106322;-64
2021/07/07 07:10:55;;;;;;;11.52;1.92;;;;;;;27.15;49.09;99969.34;4990229;28;105735;-61
2021/07/07 07:13:20;;;;;;;3.47;1.60;;;;;;;27.21;48.86;99966.59;4983639;28;106045;-61
2021/07/07 07:15:48;;;;;;;5.25;2.00;;;;;;;27.26;48.68;99975.56;4982541;28;106257;-61
2021/07/07 07:18:15;;;;;;;4.25;1.80;;;;;;;27.40;48.16;99963.97;4982253;28;106745;-61
2021/07/07 07:20:41;;;;;;;4.63;1.63;;;;;;;27.46;48.05;99973.75;4982317;28;106328;-62
2021/07/07 07:23:06;;;;;;;3.30;1.73;;;;;;;27.62;47.64;99980.69;4983117;28;106324;-60
2021/07/07 07:25:31;;;;;;;2.25;1.50;;;;;;;27.85;47.59;99975.53;4981829;28;106725;-61
2021/07/07 07:27:57;;;;;;;3.90;1.85;;;;;;;28.07;47.14;99976.97;4981316;28;106112;-61
2021/07/07 07:30:23;;;;;;;5.15;2.10;;;;;;;28.17;46.30;99972.16;4984367;28;105981;-61
2021/07/07 07:32:49;;;;;;;4.38;2.30;;;;;;;28.26;46.26;99980.53;4985684;28;105881;-61
2021/07/07 07:35:20;;;;;;;3.30;2.10;;;;;;;28.44;45.94;99975.38;4984722;28;105837;-61
2021/07/07 07:37:51;;;;;;;5.72;2.03;;;;;;;28.60;45.57;99968.56;4984545;28;106099;-61
2021/07/07 07:40:27;;;;;;;4.53;2.22;;;;;;;28.61;45.06;99969.38;4984847;28;106832;-61
2021/07/07 07:42:53;;;;;;;6.28;2.20;;;;;;;28.69;44.81;99966.81;4975840;28;105985;-61
2021/07/07 07:45:19;;;;;;;4.10;2.17;;;;;;;28.79;45.00;99971.34;4971356;28;106146;-61
2021/07/07 07:47:45;;;;;;;3.65;2.08;;;;;;;28.98;45.03;99963.09;4970884;28;105957;-63
2021/07/07 07:50:13;;;;;;;4.47;1.80;;;;;;;29.12;44.25;99954.09;4971192;28;105987;-62
2021/07/07 07:52:41;;;;;;;6.43;2.03;;;;;;;29.04;44.15;99956.38;4971801;28;106024;-63
2021/07/07 07:55:07;;;;;;;4.28;1.88;;;;;;;29.12;43.86;99963.13;4971369;28;106128;-63
2021/07/07 07:57:36;;;;;;;4.88;2.03;;;;;;;29.27;43.80;99953.84;4970997;28;106709;-61
2021/07/07 08:00:12;;;;;;;3.58;1.92;;;;;;;29.44;43.35;99968.91;4971168;28;106037;-61
2021/07/07 08:02:37;;;;;;;4.05;1.90;;;;;;;29.56;43.01;99965.69;4971479;28;105874;-64
2021/07/07 08:05:03;;;;;;;2.55;1.80;;;;;;;29.52;42.83;99959.97;4971396;28;106151;-63
2021/07/07 08:07:29;;;;;;;5.55;2.85;;;;;;;29.63;42.67;99955.91;4970914;28;106103;-63
2021/07/07 08:09:55;;;;;;;5.40;2.10;;;;;;;29.65;42.05;99952.88;4971088;28;106088;-62
2021/07/07 08:12:21;;;;;;;5.28;1.75;;;;;;;29.57;42.43;99957.16;4971552;28;106032;-65
2021/07/07 08:14:50;;;;;;;4.38;2.00;;;;;;;29.74;42.57;99955.72;4971237;28;106414;-62
2021/07/07 08:17:16;;;;;;;3.92;1.70;;;;;;;29.79;42.20;99964.69;4970828;28;106143;-61
2021/07/07 08:19:42;;;;;;;4.93;2.20;;;;;;;29.83;42.19;99959.41;4969656;28;105973;-65
2021/07/07 08:22:07;;;;;;;3.80;2.00;;;;;;;29.95;41.81;99967.13;4971723;28;106845;-66
2021/07/07 08:24:32;;;;;;;3.50;1.75;;;;;;;30.15;41.99;99955.72;4971131;28;106174;-65
2021/07/07 08:26:58;;;;;;;3.20;1.98;;;;;;;30.42;41.29;99956.00;4970487;28;106516;-68
2021/07/07 08:29:23;;;;;;;2.88;2.10;;;;;;;30.50;40.93;99941.56;4970413;28;106624;-72
2021/07/07 08:31:53;;;;;;;3.33;2.03;;;;;;;30.58;41.01;99949.06;4970929;28;106116;-71
2021/07/07 08:34:19;;;;;;;2.45;1.70;;;;;;;30.75;40.94;99945.63;4970541;28;106017;-68
2021/07/07 08:36:45;;;;;;;6.25;1.80;;;;;;;30.83;40.38;99938.56;4970397;28;106018;-62
2021/07/07 08:39:10;;;;;;;4.60;2.20;;;;;;;30.87;40.30;99936.81;4970251;28;106422;-63
2021/07/07 08:41:38;;;;;;;4.85;2.30;;;;;;;30.85;40.02;99928.88;4971414;28;106399;-63
2021/07/07 08:44:03;;;;;;;3.60;1.90;;;;;;;30.77;39.65;99943.38;4932945;28;106161;-61
2021/07/07 08:46:30;;;;;;;3.83;2.22;;;;;;;30.82;40.05;99943.25;4931398;28;105961;-61
2021/07/07 08:48:56;;;;;;;8.45;3.50;;;;;;;31.01;39.71;99937.53;4930952;28;105884;-63
2021/07/07 08:51:21;;;;;;;5.07;2.65;;;;;;;31.22;39.75;99940.63;4931936;28;105893;-60
2021/07/07 08:53:47;;;;;;;2.15;1.80;;;;;;;31.52;39.54;99945.59;4930366;28;105868;-63
2021/07/07 08:56:13;;;;;;;3.58;2.10;;;;;;;31.59;38.48;99950.66;4931238;28;105760;-60
2021/07/07 08:58:38;;;;;;;3.70;2.08;;;;;;;31.52;38.44;99954.69;4931076;28;105842;-62
2021/07/07 09:01:04;;;;;;;7.95;2.67;;;;;;;31.43;38.30;99955.78;4931619;28;105812;-61
2021/07/07 09:03:30;;;;;;;4.25;2.38;;;;;;;31.28;38.47;99963.31;4931481;28;106201;-62
2021/07/07 09:06:04;;;;;;;5.70;2.15;;;;;;;31.25;38.26;99957.63;4930777;28;106057;-61
2021/07/07 09:08:32;;;;;;;4.78;2.00;;;;;;;31.36;38.83;99948.78;4931061;28;106402;-63
2021/07/07 09:11:15;;;;;;;3.08;1.98;;;;;;;31.60;37.73;99963.34;4929308;28;106625;-63
2021/07/07 09:13:40;;;;;;;4.00;2.55;;;;;;;31.52;37.84;99964.88;4930894;28;106171;-62
2021/07/07 09:16:17;;;;;;;5.95;2.42;;;;;;;31.67;38.15;99963.69;4930255;28;106100;-63
2021/07/07 09:18:42;;;;;;;3.65;2.58;;;;;;;31.86;37.70;99969.75;4930716;28;106021;-61
2021/07/07 09:22:10;;;;;;;4.75;2.10;;;;;;;32.01;37.68;99981.44;4931273;28;105973;-62
2021/07/07 09:24:41;;;;;;;3.50;1.95;;;;;;;32.13;37.27;99983.59;4888441;28;106394;-61
2021/07/07 09:27:12;;;;;;;6.47;3.20;;;;;;;32.16;37.04;99982.97;4929407;28;107031;-61
2021/07/07 09:29:39;;;;;;;4.90;2.80;;;;;;;32.27;37.17;99980.75;4930486;28;105893;-63
2021/07/07 09:32:16;;;;;;;4.38;2.92;;;;;;;32.32;36.62;99973.13;4931139;28;105867;-62
2021/07/07 09:34:43;;;;;;;4.00;2.75;;;;;;;32.42;36.41;99965.69;4930889;28;106236;-63
2021/07/07 09:37:10;;;;;;;3.97;2.38;;;;;;;32.49;36.07;99966.84;4930385;28;106176;-63
2021/07/07 09:39:36;;;;;;;4.82;2.58;;;;;;;32.63;36.42;99974.94;4930708;28;106393;-63
2021/07/07 09:42:02;;;;;;;3.75;2.15;;;;;;;32.67;36.19;99970.41;4931151;28;106064;-61
2021/07/07 09:44:34;;;;;;;4.18;2.40;;;;;;;32.92;36.03;99987.28;4930800;28;105856;-62
2021/07/07 09:47:03;;;;;;;7.05;2.30;;;;;;;33.29;35.61;99986.94;4928862;28;106095;-61
2021/07/07 09:49:30;;;;;;;;;;;;;;;33.67;34.78;99992.47;4931062;28;105838;-62
2021/07/07 09:51:55;;;;;;;3.55;2.30;;;;;;;34.22;34.36;99993.53;4929645;28;106019;-60
2021/07/07 09:54:22;;;;;;;4.78;2.58;;;;;;;34.73;33.33;100007.34;4930881;28;105903;-60
2021/07/07 09:56:47;;;;;;;7.30;2.70;;;;;;;35.10;33.22;100008.69;4930338;28;106614;-63
2021/07/07 09:59:13;;;;;;;8.32;2.70;;;;;;;35.00;32.86;100002.41;4930146;28;105978;-63
2021/07/07 10:01:39;;;;;;;5.55;2.47;;;;;;;35.12;33.23;100006.34;4931267;28;106074;-62
2021/07/07 10:04:05;;;;;;;6.57;2.83;;;;;;;35.37;32.75;100010.06;4930524;28;105956;-62
2021/07/07 10:06:31;;;;;;;6.15;2.50;;;;;;;35.62;32.79;100008.13;4928757;28;106685;-60
2021/07/07 10:08:56;;;;;;;4.65;2.38;;;;;;;35.85;32.09;100010.50;4927968;28;105965;-60
2021/07/07 10:11:22;;;;;;;3.55;2.22;;;;;;;36.17;31.22;100016.25;4929509;28;106218;-60
2021/07/07 10:13:48;;;;;;;11.52;2.88;;;;;;;36.35;30.43;100014.88;4928952;28;106304;-60
2021/07/07 10:16:15;;;;;;;4.05;1.90;;;;;;;36.31;30.45;100005.59;4928724;28;106403;-59
2021/07/07 10:18:41;;;;;;;8.18;2.55;;;;;;;36.06;29.96;100005.63;4927617;28;106093;-59
2021/07/07 10:21:07;;;;;;;3.90;2.30;;;;;;;35.78;30.51;100004.69;4929997;28;105976;-60
2021/07/07 10:23:33;;;;;;;7.18;2.40;;;;;;;35.72;30.36;100004.91;4928966;28;105985;-62
2021/07/07 10:26:01;;;;;;;4.60;2.28;;;;;;;36.04;30.10;100001.59;4930038;28;106061;-62
2021/07/07 10:28:27;;;;;;;4.05;2.30;;;;;;;36.17;30.01;100005.16;4930127;28;106326;-61
2021/07/07 10:30:59;;;;;;;6.97;2.88;;;;;;;36.47;29.73;99999.34;4930387;28;106062;-62
2021/07/07 10:33:27;;;;;;;3.65;2.15;;;;;;;36.63;29.02;99997.47;4929911;28;106056;-62
2021/07/07 10:36:13;;;;;;;5.57;2.17;;;;;;;36.84;29.10;100007.59;4927898;28;109664;-62
2021/07/07 10:38:38;;;;;;;4.32;2.67;;;;;;;37.42;28.37;100008.00;4927347;28;106220;-60
2021/07/07 10:41:04;;;;;;;4.22;2.00;;;;;;;37.95;28.25;100009.75;4928598;28;106112;-59
2021/07/07 10:43:44;;;;;;;4.00;1.85;;;;;;;38.05;27.34;100013.94;4928131;28;106286;-61
2021/07/07 10:46:11;;;;;;;4.57;1.88;;;;;;;38.25;27.60;100017.63;4927388;28;106078;-59
2021/07/07 10:48:36;;;;;;;2.40;1.58;;;;;;;38.40;26.86;100027.09;4927573;28;105970;-60
2021/07/07 10:51:29;;;;;;;7.50;1.70;;;;;;;38.63;27.04;100021.63;4928257;28;106205;-60
2021/07/07 10:53:55;;;;;;;4.95;1.65;;;;;;;38.68;26.90;100029.66;4927731;28;106255;-59
2021/07/07 10:56:43;;;;;;;4.47;2.00;;;;;;;38.62;26.62;100020.00;4927632;28;106024;-61
2021/07/07 10:59:35;;;;;;;3.03;1.65;;;;;;;38.21;26.33;100023.06;4927710;28;106526;-60
2021/07/07 11:02:24;;;;;;;4.60;2.00;;;;;;;38.21;26.39;100025.03;4927983;28;106581;-61
2021/07/07 11:04:50;;;;;;;3.67;1.70;;;;;;;38.02;26.65;100021.03;4927621;28;106046;-61
2021/07/07 11:07:31;;;;;;;3.35;1.52;;;;;;;37.83;26.81;100023.75;4927587;28;106587;-60
2021/07/07 11:10:17;;;;;;;7.43;1.75;;;;;;;37.54;27.26;100026.56;4927495;28;106024;-61
2021/07/07 11:12:42;;;;;;;4.00;1.60;;;;;;;36.71;28.30;100021.47;4928425;28;105993;-61
2021/07/07 11:15:09;;;;;;;5.23;1.63;;;;;;;36.35;28.39;100037.06;4927704;28;106421;-62
2021/07/07 11:17:35;;;;;;;9.23;2.35;;;;;;;35.50;29.49;100035.81;4928116;28;106670;-60
2021/07/07 11:20:08;;;;;;;4.90;1.90;;;;;;;35.20;30.51;100038.69;4930826;28;106192;-60
2021/07/07 11:22:34;;;;;;;4.20;1.60;;;;;;;34.86;30.73;100035.09;4931227;28;106139;-60
2021/07/07 11:25:03;;;;;;;4.45;1.40;;;;;;;34.43;31.25;100033.44;4931028;28;106201;-60
2021/07/07 11:27:31;;;;;;;5.10;1.70;;;;;;;33.88;32.24;100038.75;4930346;28;106486;-61
2021/07/07 11:29:57;;;;;;;6.10;1.58;;;;;;;33.50;32.41;100048.56;4929953;28;106393;-60
2021/07/07 11:32:47;;;;;;;6.45;1.92;;;;;;;33.18;33.00;100058.19;4931509;28;106043;-61
2021/07/07 11:35:22;;;;;;;6.05;1.67;;;;;;;32.73;33.97;100067.59;4929996;28;106255;-60
2021/07/07 11:37:53;;;;;;;10.65;2.17;;;;;;;32.62;34.09;100067.06;4928872;28;107771;-60
2021/07/07 11:40:20;;;;;;;5.05;1.90;;;;;;;32.54;34.16;100078.88;4929499;28;105977;-59
2021/07/07 11:43:05;;;;;;;5.65;2.08;;;;;;;32.20;34.79;100069.38;4930801;28;106338;-59
2021/07/07 11:46:02;;;;;;;3.30;2.08;;;;;;;32.00;35.33;100074.31;4944748;28;106189;-59
2021/07/07 11:48:42;;;;;;;4.90;1.73;;;;;;;31.94;35.14;100083.03;4949778;28;106629;-62
2021/07/07 11:51:18;;;;;;;6.22;2.10;;;;;;;31.58;35.44;100092.19;4951362;28;105932;-60
2021/07/07 11:53:49;;;;;;;3.67;2.13;;;;;;;31.34;36.22;100098.81;4951356;28;105961;-59
2021/07/07 11:56:15;;;;;;;2.38;1.65;;;;;;;31.19;36.02;100097.25;4951720;28;105991;-59
2021/07/07 11:58:44;;;;;;;3.72;2.00;;;;;;;30.79;36.67;100106.09;4951065;28;106771;-60
2021/07/07 12:01:21;;;;;;;4.30;2.03;;;;;;;30.69;37.08;100107.13;4950740;28;106152;-59
2021/07/07 12:04:02;;;;;;;3.92;1.90;;;;;;;30.59;37.13;100123.81;4951436;28;105910;-60
2021/07/07 12:06:28;;;;;;;4.82;2.10;;;;;;;30.63;37.46;100113.03;4950333;28;105889;-60
2021/07/07 12:08:54;;;;;;;9.18;2.30;;;;;;;30.39;37.60;100109.34;4950453;28;106760;-59
2021/07/07 12:11:19;;;;;;;3.38;1.90;;;;;;;30.46;38.24;100121.91;4950760;28;105886;-59
2021/07/07 12:13:50;;;;;;;4.15;1.60;;;;;;;30.58;37.46;100121.38;4950143;28;106246;-63
2021/07/07 12:16:25;;;;;;;3.78;1.75;;;;;;;30.85;37.62;100123.28;4950958;28;105826;-62
2021/07/07 12:18:50;;;;;;;2.40;1.83;;;;;;;31.22;37.17;100129.63;4950234;28;106584;-60
2021/07/07 12:21:21;;;;;;;5.55;2.15;;;;;;;31.39;36.53;100134.50;4950350;28;105833;-61
2021/07/07 12:23:52;;;;;;;7.30;1.70;;;;;;;31.37;35.91;100137.56;4950413;28;106077;-62
2021/07/07 12:26:19;;;;;;;3.45;1.60;;;;;;;31.17;36.14;100140.78;4931189;28;105882;-61
2021/07/07 12:28:45;;;;;;;5.80;1.67;;;;;;;31.24;36.10;100145.88;4928555;28;106769;-62
2021/07/07 12:31:10;;;;;;;3.95;2.00;;;;;;;31.14;35.61;100149.63;4927722;28;106490;-61
2021/07/07 12:33:37;;;;;;;5.53;1.85;;;;;;;30.85;35.67;100137.03;4929559;28;106478;-61
2021/07/07 12:36:04;;;;;;;4.03;2.30;;;;;;;30.52;36.16;100150.91;4928593;28;106234;-62
2021/07/07 12:38:31;;;;;;;5.55;1.70;;;;;;;30.01;36.87;100164.47;4928592;28;106920;-60
2021/07/07 12:40:57;;;;;;;4.93;1.75;;;;;;;29.78;37.08;100159.91;4927989;28;106267;-61
2021/07/07 12:43:40;;;;;;;5.50;2.20;;;;;;;29.75;37.94;100163.25;4930442;28;106012;-60
2021/07/07 12:46:08;;;;;;;3.85;1.73;;;;;;;29.96;38.01;100172.78;4931210;28;106063;-61
2021/07/07 12:48:49;;;;;;;2.53;1.58;;;;;;;30.28;37.10;100182.13;4931010;28;106735;-61
2021/07/07 12:51:27;;;;;;;7.03;2.63;;;;;;;30.13;36.96;100188.72;4930760;28;106114;-61
2021/07/07 12:53:55;;;;;;;4.68;2.00;;;;;;;30.11;37.80;100182.69;4931436;28;105940;-61
2021/07/07 12:56:21;;;;;;;8.75;2.15;;;;;;;30.32;37.25;100182.31;4930464;28;106150;-61
2021/07/07 12:59:11;;;;;;;3.30;1.88;;;;;;;30.40;37.07;100189.88;4930764;28;105974;-61
2021/07/07 13:01:37;;;;;;;3.92;2.17;;;;;;;30.57;37.14;100183.81;4930735;28;106449;-61
2021/07/07 13:04:02;;;;;;;6.95;2.38;;;;;;;30.50;37.21;100189.69;4931249;28;106051;-60
2021/07/07 13:06:28;;;;;;;6.32;1.73;;;;;;;30.26;37.67;100191.78;4930816;28;106228;-61
2021/07/07 13:09:03;;;;;;;6.22;2.10;;;;;;;30.28;37.82;100173.88;4930794;28;106177;-61
2021/07/07 13:11:28;;;;;;;3.50;1.83;;;;;;;30.34;37.61;100194.63;4930324;28;105890;-61
2021/07/07 13:13:57;;;;;;;5.53;1.77;;;;;;;30.39;37.72;100186.31;4930968;28;106085;-62
2021/07/07 13:16:31;;;;;;;4.53;1.77;;;;;;;30.38;37.81;100195.66;4930141;28;106229;-60
2021/07/07 13:19:03;;;;;;;4.60;2.13;;;;;;;30.30;37.92;100210.09;4930269;28;105931;-62
2021/07/07 13:21:30;;;;;;;5.45;2.28;;;;;;;30.04;38.21;100201.50;4929568;28;106033;-63
2021/07/07 13:23:56;;;;;;;5.97;1.83;;;;;;;29.90;38.19;100206.16;4931035;28;106043;-63
2021/07/07 13:26:24;;;;;;;7.45;2.30;;;;;;;29.64;38.58;100218.31;4930569;28;106233;-64
2021/07/07 13:28:53;;;;;;;7.07;2.10;;;;;;;29.40;39.17;100220.31;4929911;28;107150;-62
2021/07/07 13:31:22;;;;;;;4.77;1.80;;;;;;;29.11;39.08;100216.53;4929541;28;106143;-63
2021/07/07 13:33:52;;;;;;;6.15;1.60;;;;;;;28.81;39.62;100220.47;4928774;28;106573;-63
2021/07/07 13:36:19;;;;;;;3.05;2.00;;;;;;;28.57;40.35;100231.38;4928816;28;106312;-62
2021/07/07 13:38:45;;;;;;;3.67;1.98;;;;;;;28.67;40.92;100223.91;4928805;28;106188;-62
2021/07/07 13:41:10;;;;;;;7.13;2.03;;;;;;;28.70;40.74;100220.59;4927848;28;106459;-63
2021/07/07 13:43:37;;;;;;;3.28;1.67;;;;;;;28.75;40.36;100211.50;4927687;28;106130;-61
2021/07/07 13:46:02;;;;;;;4.30;1.83;;;;;;;28.55;40.42;100217.97;4928215;28;106266;-61
2021/07/07 13:48:28;;;;;;;6.18;2.17;;;;;;;28.26;40.89;100237.19;4928141;28;106106;-62
2021/07/07 13:50:55;;;;;;;4.97;1.60;;;;;;;28.13;41.28;100239.47;4928274;28;106145;-61
2021/07/07 13:53:20;;;;;;;3.00;1.60;;;;;;;27.97;41.46;100237.94;4939292;28;106191;-60
2021/07/07 13:55:45;;;;;;;4.13;1.80;;;;;;;27.95;41.90;100238.19;4947581;28;106015;-64
2021/07/07 13:58:11;;;;;;;3.92;1.90;;;;;;;27.69;41.59;100235.69;4947547;28;106358;-61
2021/07/07 14:00:36;;;;;;;2.05;1.48;;;;;;;27.50;41.95;100231.94;4947560;28;106107;-62
2021/07/07 14:03:02;;;;;;;2.15;1.30;;;;;;;27.48;42.11;100234.16;4948122;28;106253;-61
2021/07/07 14:05:27;;;;;;;4.05;1.50;;;;;;;27.60;41.47;100242.84;4947677;28;106656;-61
2021/07/07 14:07:52;;;;;;;2.10;1.30;;;;;;;27.46;41.56;100241.81;4946969;28;108205;-62
2021/07/07 14:10:18;;;;;;;4.03;1.48;;;;;;;27.35;41.52;100254.69;4946555;28;105931;-61
2021/07/07 14:12:43;;;;;;;3.72;1.33;;;;;;;27.23;41.61;100260.50;4948424;28;106011;-63
2021/07/07 14:15:09;;;;;;;2.28;1.13;;;;;;;27.20;41.87;100261.06;4944315;28;106161;-62
2021/07/07 14:17:34;;;;;;;5.53;1.60;;;;;;;27.14;42.03;100262.19;4943209;28;107132;-61
2021/07/07 14:19:59;;;;;;;2.15;1.23;;;;;;;27.06;41.43;100270.97;4948855;28;105859;-59
2021/07/07 14:22:25;;;;;;;2.63;1.38;;;;;;;26.85;41.71;100251.91;4949532;28;106415;-60
2021/07/07 14:24:50;;;;;;;3.55;1.50;;;;;;;26.64;42.13;100259.28;4948769;28;106201;-64
2021/07/07 14:27:16;;;;;;;2.53;1.20;;;;;;;26.56;42.58;100252.47;4949354;28;106010;-62
2021/07/07 14:29:42;;;;;;;2.15;1.35;;;;;;;26.51;42.21;100241.56;4948835;28;105908;-62
2021/07/07 14:32:07;;;;;;;3.15;1.20;;;;;;;26.32;42.68;100253.03;4949745;28;106457;-62
2021/07/07 14:34:32;;;;;;;2.92;1.52;;;;;;;26.33;42.70;100251.94;4948637;28;106582;-65
2021/07/07 14:36:58;;;;;;;3.22;1.30;;;;;;;26.15;43.04;100241.59;4948823;28;105977;-65
2021/07/07 14:39:23;;;;;;;6.45;1.45;;;;;;;26.15;43.18;100244.31;4948785;28;105945;-63
2021/07/07 14:41:49;;;;;;;3.83;1.42;;;;;;;26.25;42.87;100249.78;4949257;28;106070;-64
2021/07/07 14:44:14;;;;;;;3.53;1.50;;;;;;;26.30;43.04;100249.78;4947065;28;106700;-62
2021/07/07 14:46:39;;;;;;;6.82;1.40;;;;;;;26.31;43.01;100261.50;4947810;28;106246;-64
2021/07/07 14:49:05;;;;;;;2.40;1.30;;;;;;;26.15;43.36;100252.53;4948510;28;105899;-64
2021/07/07 14:51:31;;;;;;;3.60;1.45;;;;;;;25.84;43.87;100264.19;4949299;28;105729;-63
2021/07/07 14:53:56;;;;;;;3.08;1.40;;;;;;;25.56;44.30;100260.03;4951326;28;106158;-63
2021/07/07 14:56:22;;;;;;;5.72;1.38;;;;;;;25.28;44.88;100267.53;4951656;28;105975;-64
2021/07/07 14:58:48;;;;;;;5.10;1.35;;;;;;;25.15;45.36;100268.03;4951466;28;106618;-64
2021/07/07 15:01:13;;;;;;;3.60;1.60;;;;;;;25.04;45.53;100274.50;4952375;28;105990;-64
2021/07/07 15:03:38;;;;;;;3.53;1.40;;;;;;;24.93;45.87;100281.81;4952136;28;105955;-64
2021/07/07 15:06:04;;;;;;;3.38;1.45;;;;;;;24.83;46.28;100267.03;4951691;28;105752;-65
2021/07/07 15:08:29;;;;;;;3.40;1.33;;;;;;;24.70;46.30;100272.97;4951290;28;105802;-64
2021/07/07 15:10:55;;;;;;;4.60;1.48;;;;;;;24.52;46.79;100276.06;4952791;28;106743;-65
2021/07/07 15:13:20;;;;;;;2.90;1.60;;;;;;;24.38;47.38;100289.31;4951296;28;106185;-65
2021/07/07 15:15:46;;;;;;;3.20;1.90;;;;;;;24.31;47.87;100293.06;4951794;28;106420;-64
2021/07/07 15:18:11;;;;;;;3.50;1.63;;;;;;;24.25;47.70;100283.22;4950994;28;106443;-65
2021/07/07 15:20:39;;;;;;;5.50;1.52;;;;;;;24.10;48.01;100285.81;4952078;28;105921;-65
2021/07/07 15:23:05;;;;;;;3.85;1.90;;;;;;;24.01;48.69;100287.34;4951340;28;106228;-65
2021/07/07 15:25:31;;;;;;;1.92;1.73;;;;;;;24.01;49.14;100290.09;4951315;28;106398;-64
2021/07/07 15:27:57;;;;;;;5.32;1.70;;;;;;;24.09;49.02;100278.72;4951062;28;106108;-63
2021/07/07 15:30:23;;;;;;;4.10;1.50;;;;;;;24.11;48.82;100282.84;4951552;28;106033;-63
2021/07/07 15:32:49;;;;;;;2.67;1.70;;;;;;;24.13;49.12;100285.28;4951584;28;105908;-63
2021/07/07 15:35:15;;;;;;;5.68;1.90;;;;;;;24.02;49.07;100283.53;4950979;28;105845;-63
2021/07/07 15:37:41;;;;;;;3.25;1.83;;;;;;;23.85;49.17;100281.72;4951107;28;106320;-64
2021/07/07 15:40:07;;;;;;;2.78;2.25;;;;;;;23.71;49.60;100289.47;4952061;28;106034;-63
2021/07/07 15:42:33;;;;;;;3.05;1.80;;;;;;;23.57;49.96;100285.50;4949739;28;106346;-62
2021/07/07 15:44:59;;;;;;;1.90;1.70;;;;;;;23.39;50.64;100284.75;4951074;28;106038;-64
2021/07/07 15:47:24;;;;;;;2.33;1.70;;;;;;;23.27;50.86;100282.16;4950874;28;106129;-63
2021/07/07 15:49:49;;;;;;;3.33;2.25;;;;;;;23.14;51.39;100285.25;4951734;28;106116;-64
2021/07/07 15:52:15;;;;;;;3.47;1.95;;;;;;;23.18;51.95;100291.81;4951343;28;106275;-63
2021/07/07 15:54:40;;;;;;;3.75;1.95;;;;;;;23.16;51.93;100288.56;4949235;28;106133;-65
2021/07/07 15:57:05;;;;;;;3.17;2.00;;;;;;;23.13;52.25;100294.50;4951011;28;106019;-62
2021/07/07 15:59:31;;;;;;;2.80;1.90;;;;;;;23.15;52.00;100298.59;4951393;28;106054;-64
2021/07/07 16:01:56;;;;;;;3.13;2.00;;;;;;;23.14;52.26;100306.97;4950857;28;106156;-63
2021/07/07 16:04:21;;;;;;;4.30;2.17;;;;;;;23.02;52.27;100303.53;4950445;28;106626;-63
2021/07/07 16:06:47;;;;;;;3.30;1.70;;;;;;;22.87;52.58;100302.25;4950902;28;105934;-64
2021/07/07 16:09:13;;;;;;;3.28;1.67;;;;;;;22.81;52.87;100305.94;4951569;28;106100;-64
2021/07/07 16:11:38;;;;;;;2.92;1.70;;;;;;;22.77;53.22;100305.66;4950841;28;106316;-64
2021/07/07 16:14:04;;;;;;;3.10;1.98;;;;;;;22.80;53.37;100310.56;4950678;28;106152;-64
2021/07/07 16:16:29;;;;;;;2.65;1.80;;;;;;;22.88;53.15;100314.75;4950375;28;106011;-64
2021/07/07 16:18:55;;;;;;;5.45;2.00;;;;;;;22.89;53.11;100310.16;4951365;28;105781;-65
2021/07/07 16:21:21;;;;;;;2.15;1.42;;;;;;;22.87;53.11;100313.13;4950403;28;106343;-65
2021/07/07 16:23:47;;;;;;;2.72;1.83;;;;;;;22.78;52.94;100304.53;4950462;28;106120;-64
2021/07/07 16:26:13;;;;;;;4.88;1.92;;;;;;;22.74;53.23;100310.72;4950067;28;106142;-66
2021/07/07 16:28:44;;;;;;;3.05;1.50;;;;;;;22.73;53.25;100318.06;4951139;28;105872;-65
2021/07/07 16:31:10;;;;;;;2.45;1.38;;;;;;;22.69;53.17;100307.94;4950011;28;106184;-64
2021/07/07 16:33:36;;;;;;;2.90;1.60;;;;;;;22.72;53.87;100310.16;4950141;28;106407;-64
2021/07/07 16:36:03;;;;;;;2.75;1.60;;;;;;;22.85;53.96;100315.25;4949779;28;106546;-63
2021/07/07 16:38:28;;;;;;;3.03;2.00;;;;;;;23.03;53.56;100310.59;4951085;28;106042;-64
2021/07/07 16:40:54;;;;;;;2.83;1.65;;;;;;;23.03;52.86;100311.41;4950424;28;106227;-63
2021/07/07 16:43:20;;;;;;;5.40;1.90;;;;;;;22.97;53.09;100317.88;4950379;28;106034;-64
2021/07/07 16:45:45;;;;;;;3.13;1.65;;;;;;;23.12;53.24;100319.97;4950263;28;105937;-63
2021/07/07 16:48:11;;;;;;;6.18;2.00;;;;;;;23.20;53.08;100327.72;4951075;28;105927;-63
2021/07/07 16:50:36;;;;;;;4.35;1.90;;;;;;;23.23;52.70;100327.22;4950267;28;106202;-62
2021/07/07 16:53:03;;;;;;;4.30;1.35;;;;;;;23.17;52.43;100327.41;4949794;28;105969;-63
2021/07/07 16:55:29;;;;;;;2.63;1.65;;;;;;;23.14;52.53;100329.56;4949201;28;106826;-63
2021/07/07 16:57:55;;;;;;;2.22;1.20;;;;;;;23.13;52.45;100322.47;4950578;28;105955;-62
2021/07/07 17:00:20;;;;;;;3.05;1.45;;;;;;;23.18;52.47;100329.06;4949902;28;106128;-63
2021/07/07 17:02:46;;;;;;;2.67;1.55;;;;;;;23.21;52.44;100326.66;4949805;28;106704;-61
2021/07/07 17:05:11;;;;;;;4.63;1.85;;;;;;;23.21;52.12;100333.97;4948853;28;106379;-62
2021/07/07 17:07:37;;;;;;;1.88;1.50;;;;;;;23.12;52.06;100325.41;4950744;28;106013;-62
2021/07/07 17:10:03;;;;;;;5.70;1.50;;;;;;;23.02;52.20;100336.13;4950310;28;106180;-61
2021/07/07 17:12:29;;;;;;;5.28;1.60;;;;;;;22.95;52.49;100347.16;4949498;28;106006;-63
2021/07/07 17:14:54;;;;;;;2.92;1.33;;;;;;;22.90;52.33;100356.06;4948855;28;106582;-63
2021/07/07 17:17:19;;;;;;;6.07;1.50;;;;;;;22.81;52.73;100352.13;4950876;28;106103;-63
2021/07/07 17:19:45;;;;;;;3.38;1.48;;;;;;;22.77;53.15;100351.81;4950242;28;106152;-63
2021/07/07 17:22:10;;;;;;;2.40;1.58;;;;;;;22.69;53.01;100345.94;4949455;28;105988;-61
2021/07/07 17:24:35;;;;;;;6.10;1.73;;;;;;;22.65;53.18;100341.03;4949563;28;105939;-63
2021/07/07 17:27:01;;;;;;;2.30;1.50;;;;;;;22.69;53.27;100340.53;4950727;28;106134;-63
2021/07/07 17:29:27;;;;;;;5.38;1.70;;;;;;;22.78;53.53;100348.00;4949760;28;106293;-63
2021/07/07 17:31:52;;;;;;;3.35;1.60;;;;;;;22.87;53.04;100342.16;4949415;28;105899;-63
2021/07/07 17:34:18;;;;;;;4.43;1.67;;;;;;;22.89;52.83;100351.69;4949454;28;106211;-64
2021/07/07 17:36:43;;;;;;;4.05;1.80;;;;;;;22.95;52.77;100350.72;4950161;28;105771;-62
2021/07/07 17:39:08;;;;;;;4.25;1.60;;;;;;;22.99;52.96;100360.00;4949889;28;106293;-63
2021/07/07 17:41:34;;;;;;;3.90;1.50;;;;;;;22.99;52.49;100354.59;4949590;28;106017;-63
2021/07/07 17:44:01;;;;;;;3.80;1.30;;;;;;;22.96;52.24;100363.25;4949158;28;105930;-62
2021/07/07 17:46:27;;;;;;;3.63;1.42;;;;;;;22.90;52.13;100360.69;4949972;28;106487;-65
2021/07/07 17:48:52;;;;;;;3.47;1.42;;;;;;;22.88;52.35;100366.38;4948995;28;106258;-63
2021/07/07 17:51:18;;;;;;;2.42;1.48;;;;;;;22.79;52.49;100363.22;4949373;28;107251;-62
2021/07/07 17:53:44;;;;;;;2.28;1.13;;;;;;;22.75;52.32;100369.41;4949245;28;106105;-64